Time,TemperatureF,DewpointF,PressureIn,WindDirection,WindDirectionDegrees,WindSpeedMPH,WindSpeedGustMPH,Humidity,HourlyPrecipIn,Conditions,Clouds,dailyrainin,SolarRadiationWatts/m^2,SoftwareType,DateUTC
2013-08-29 10:00:00,73.0,66.0,-100.00,ESE,112,2.0,-999.0,80,-99.99,,,-99.99,372.359985,,2013-08-29 14:00:00,
2013-08-29 10:42:00,73.0,66.0,-100.00,ESE,112,2.0,-999.0,80,-99.99,,,-99.99,372.359985,,2013-08-29 14:42:00,
2013-08-29 10:52:00,73.0,66.0,-100.00,ESE,112,2.0,-999.0,80,-99.99,,,-99.99,372.359985,,2013-08-29 14:52:00,
2013-08-29 11:00:00,79.0,67.0,-100.00,East,90,1.0,-999.0,66,-99.99,,,-99.99,528.960022,,2013-08-29 15:00:00,
2013-08-29 11:43:00,79.0,67.0,-100.00,East,90,1.0,-999.0,66,-99.99,,,-99.99,528.960022,,2013-08-29 15:43:00,
2013-08-29 11:53:00,79.0,67.0,-100.00,East,90,1.0,-999.0,66,-99.99,,,-99.99,528.960022,,2013-08-29 15:53:00,
2013-08-29 12:00:00,82.0,67.0,-100.00,NE,45,2.0,-999.0,61,-99.99,,,-99.99,653.080017,,2013-08-29 16:00:00,
2013-08-29 12:43:00,82.0,67.0,-100.00,NE,45,2.0,-999.0,61,-99.99,,,-99.99,653.080017,,2013-08-29 16:43:00,
2013-08-29 12:54:00,82.0,67.0,-100.00,NE,45,2.0,-999.0,61,-99.99,,,-99.99,653.080017,,2013-08-29 16:54:00,
2013-08-29 13:00:00,83.0,66.0,-100.00,NE,45,3.0,-999.0,56,-99.99,,,-99.99,740.080017,,2013-08-29 17:00:00,
2013-08-29 13:44:00,83.0,66.0,-100.00,NE,45,3.0,-999.0,56,-99.99,,,-99.99,740.080017,,2013-08-29 17:44:00,
2013-08-29 13:53:00,83.0,66.0,-100.00,NE,45,3.0,-999.0,56,-99.99,,,-99.99,740.080017,,2013-08-29 17:53:00,
2013-08-29 14:00:00,85.0,67.0,-100.00,NNE,22,1.0,-999.0,55,-99.99,,,-99.99,625.239990,,2013-08-29 18:00:00,
2013-08-29 14:42:00,85.0,67.0,-100.00,NNE,22,1.0,-999.0,55,-99.99,,,-99.99,625.239990,,2013-08-29 18:42:00,
2013-08-29 14:52:00,85.0,67.0,-100.00,NNE,22,1.0,-999.0,55,-99.99,,,-99.99,625.239990,,2013-08-29 18:52:00,
2013-08-29 15:00:00,86.0,66.0,-100.00,NNE,22,1.0,-999.0,52,-99.99,,,-99.99,676.280029,,2013-08-29 19:00:00,
2013-08-29 15:42:00,86.0,66.0,-100.00,NNE,22,1.0,-999.0,52,-99.99,,,-99.99,676.280029,,2013-08-29 19:42:00,
2013-08-29 15:53:00,86.0,66.0,-100.00,NNE,22,1.0,-999.0,52,-99.99,,,-99.99,676.280029,,2013-08-29 19:53:00,
2013-08-29 16:00:00,88.0,66.0,-100.00,NNE,22,1.0,-999.0,47,-99.99,,,-99.99,599.719971,,2013-08-29 20:00:00,
2013-08-29 16:42:00,88.0,66.0,-100.00,NNE,22,1.0,-999.0,47,-99.99,,,-99.99,599.719971,,2013-08-29 20:42:00,
2013-08-29 16:52:00,88.0,66.0,-100.00,NNE,22,1.0,-999.0,47,-99.99,,,-99.99,599.719971,,2013-08-29 20:52:00,
2013-08-29 17:00:00,87.0,64.0,-100.00,East,90,1.0,-999.0,46,-99.99,,,-99.99,563.760010,,2013-08-29 21:00:00,
2013-08-29 17:44:00,87.0,64.0,-100.00,East,90,1.0,-999.0,46,-99.99,,,-99.99,563.760010,,2013-08-29 21:44:00,
2013-08-29 17:54:00,87.0,64.0,-100.00,East,90,1.0,-999.0,46,-99.99,,,-99.99,563.760010,,2013-08-29 21:54:00,
2013-08-29 18:00:00,87.0,66.0,-100.00,North,0,1.0,-999.0,49,-99.99,,,-99.99,382.799988,,2013-08-29 22:00:00,
2013-08-29 18:43:00,87.0,66.0,-100.00,North,0,1.0,-999.0,49,-99.99,,,-99.99,382.799988,,2013-08-29 22:43:00,
2013-08-29 18:53:00,87.0,66.0,-100.00,North,0,1.0,-999.0,49,-99.99,,,-99.99,382.799988,,2013-08-29 22:53:00,
2013-08-29 19:00:00,84.0,69.0,-100.00,NNW,337,3.0,-999.0,61,-99.99,,,-99.99,249.399994,,2013-08-29 23:00:00,
2013-08-29 19:43:00,84.0,69.0,-100.00,NNW,337,3.0,-999.0,61,-99.99,,,-99.99,249.399994,,2013-08-29 23:43:00,
2013-08-29 19:53:00,84.0,69.0,-100.00,NNW,337,3.0,-999.0,61,-99.99,,,-99.99,249.399994,,2013-08-29 23:53:00,
2013-08-29 20:00:00,78.0,69.0,-100.00,NW,315,1.0,-999.0,74,-99.99,,,-99.99,82.360001,,2013-08-30 00:00:00,
2013-08-29 20:42:00,78.0,69.0,-100.00,NW,315,1.0,-999.0,74,-99.99,,,-99.99,82.360001,,2013-08-30 00:42:00,
2013-08-29 20:52:00,78.0,69.0,-100.00,NW,315,1.0,-999.0,74,-99.99,,,-99.99,82.360001,,2013-08-30 00:52:00,
2013-08-29 21:00:00,72.0,66.0,-100.00,NNW,337,0.0,-999.0,82,-99.99,,,-99.99,4.640000,,2013-08-30 01:00:00,
2013-08-29 21:42:00,72.0,66.0,-100.00,NNW,337,0.0,-999.0,82,-99.99,,,-99.99,4.640000,,2013-08-30 01:42:00,
2013-08-29 21:52:00,72.0,66.0,-100.00,NNW,337,0.0,-999.0,82,-99.99,,,-99.99,4.640000,,2013-08-30 01:52:00,
2013-08-29 22:00:00,69.0,65.0,-100.00,North,0,0.0,-999.0,86,-99.99,,,-99.99,0.000000,,2013-08-30 02:00:00,
2013-08-29 22:42:00,69.0,65.0,-100.00,North,0,0.0,-999.0,86,-99.99,,,-99.99,0.000000,,2013-08-30 02:42:00,
2013-08-29 22:52:00,69.0,65.0,-100.00,North,0,0.0,-999.0,86,-99.99,,,-99.99,0.000000,,2013-08-30 02:52:00,
2013-08-29 23:00:00,69.0,65.0,-100.00,ESE,112,0.0,-999.0,87,-99.99,,,-99.99,0.000000,,2013-08-30 03:00:00,
2013-08-29 23:43:00,69.0,65.0,-100.00,ESE,112,0.0,-999.0,87,-99.99,,,-99.99,0.000000,,2013-08-30 03:43:00,
2013-08-29 23:55:00,69.0,65.0,-100.00,ESE,112,0.0,-999.0,87,-99.99,,,-99.99,0.000000,,2013-08-30 03:55:00,